createdAt,value
2022-10-13T00:03:58.100Z,43.60
2022-10-13T00:09:02.078Z,44.10
2022-10-13T00:14:06.275Z,37.50
2022-10-13T00:19:14.861Z,40.90
2022-10-13T00:24:20.035Z,34.40
2022-10-13T00:29:24.328Z,36.70
2022-10-13T00:34:28.580Z,35.10
2022-10-13T00:39:33.382Z,34.50
2022-10-13T00:45:02.007Z,33.00
2022-10-13T00:50:10.643Z,33.80
2022-10-13T00:55:18.950Z,29.90
2022-10-13T01:00:25.446Z,27.40
2022-10-13T01:05:30.193Z,27.10
2022-10-13T01:11:09.382Z,32.20
2022-10-13T01:16:24.662Z,29.20
2022-10-13T01:21:30.833Z,27.40
2022-10-13T01:27:10.541Z,31.00
2022-10-13T01:32:37.828Z,29.90
2022-10-13T01:38:03.202Z,27.20
2022-10-13T01:43:26.537Z,24.70
2022-10-13T01:48:30.478Z,24.40
2022-10-13T01:53:36.220Z,26.70
2022-10-13T01:58:41.065Z,21.40
2022-10-13T02:04:02.231Z,23.30
2022-10-13T02:09:46.798Z,22.40
2022-10-13T02:14:53.526Z,24.20
2022-10-13T02:19:59.142Z,23.00
2022-10-13T02:25:04.750Z,20.30
2022-10-13T02:30:10.674Z,22.60
2022-10-13T02:35:14.950Z,18.00
2022-10-13T02:40:18.999Z,22.00
2022-10-13T02:45:24.439Z,21.30
2022-10-13T02:50:30.127Z,21.10
2022-10-13T02:55:34.418Z,20.90
2022-10-13T03:00:40.145Z,20.90
2022-10-13T03:05:44.439Z,19.10
2022-10-13T03:10:49.154Z,17.90
2022-10-13T03:15:55.302Z,19.60
2022-10-13T03:21:07.487Z,17.50
2022-10-13T03:26:12.173Z,19.90
2022-10-13T03:31:16.072Z,18.30
2022-10-13T03:36:19.831Z,17.40
2022-10-13T03:41:23.548Z,16.70
2022-10-13T03:46:30.096Z,16.60
2022-10-13T03:51:34.594Z,15.50
2022-10-13T03:56:41.290Z,16.10
2022-10-13T04:01:46.369Z,15.20
2022-10-13T04:06:51.044Z,15.30
2022-10-13T04:11:55.417Z,15.90
2022-10-13T04:17:00.131Z,16.40
2022-10-13T04:22:04.422Z,17.20
2022-10-13T04:27:09.136Z,16.30
2022-10-13T04:32:13.040Z,17.90
2022-10-13T04:37:18.074Z,17.60
2022-10-13T04:42:21.716Z,17.30
2022-10-13T04:47:25.345Z,16.70
2022-10-13T04:52:28.691Z,17.50
2022-10-13T04:57:32.690Z,21.50
2022-10-13T05:02:36.797Z,15.90
2022-10-13T05:07:39.939Z,13.10
2022-10-13T05:12:43.384Z,15.40
2022-10-13T05:17:47.705Z,15.10
2022-10-13T05:22:51.994Z,13.20
2022-10-13T05:27:56.282Z,17.40
2022-10-13T05:33:00.471Z,12.90
2022-10-13T05:38:04.886Z,13.70
2022-10-13T05:43:09.516Z,15.50
2022-10-13T05:48:14.348Z,17.00
2022-10-13T05:53:19.143Z,15.20
2022-10-13T05:58:24.505Z,18.50
2022-10-13T06:03:31.808Z,15.10
2022-10-13T06:08:36.280Z,22.10
2022-10-13T06:13:40.303Z,19.60
2022-10-13T06:18:43.755Z,17.80
2022-10-13T06:23:48.097Z,19.90
2022-10-13T06:28:56.946Z,18.50
2022-10-13T06:34:06.335Z,21.40
2022-10-13T06:39:10.584Z,18.40
2022-10-13T06:44:15.527Z,21.70
2022-10-13T06:49:24.398Z,19.00
2022-10-13T06:54:28.298Z,16.60
2022-10-13T06:59:31.456Z,13.30
2022-10-13T07:04:34.718Z,13.60
2022-10-13T07:09:38.747Z,12.60
2022-10-13T07:14:43.882Z,13.00
2022-10-13T07:19:49.116Z,10.10
2022-10-13T07:24:52.429Z,11.60
2022-10-13T07:29:56.857Z,8.70
2022-10-13T07:35:01.096Z,9.60
2022-10-13T07:40:06.564Z,10.10
2022-10-13T07:45:11.073Z,8.90
2022-10-13T07:50:16.076Z,10.50
2022-10-13T07:55:20.277Z,9.50
2022-10-13T08:00:24.542Z,9.80
2022-10-13T08:05:29.717Z,7.80
2022-10-13T08:10:34.201Z,8.60
2022-10-13T08:15:45.279Z,8.10
2022-10-13T08:20:49.132Z,7.60
2022-10-13T08:25:53.696Z,6.70
2022-10-13T08:30:58.270Z,7.90
2022-10-13T08:36:01.906Z,5.90
2022-10-13T08:47:15.627Z,8.30
2022-10-13T08:52:23.354Z,7.10
2022-10-13T08:57:26.742Z,5.40
2022-10-13T09:02:31.876Z,7.30
2022-10-13T09:07:38.324Z,5.10
2022-10-13T09:12:42.092Z,4.80
2022-10-13T09:17:46.208Z,4.90
2022-10-13T09:23:03.922Z,5.50
2022-10-13T09:28:18.442Z,5.50
2022-10-13T09:33:25.524Z,5.50
2022-10-13T09:43:35.520Z,4.20
2022-10-13T09:48:43.402Z,4.30
2022-10-13T09:53:48.107Z,5.40
2022-10-13T09:58:59.202Z,3.90
2022-10-13T10:04:11.774Z,3.60
2022-10-13T10:09:35.103Z,3.80
2022-10-13T10:14:40.076Z,5.40
2022-10-13T10:19:52.710Z,4.20
2022-10-13T10:25:13.468Z,4.30
2022-10-13T10:30:20.478Z,3.10
2022-10-13T10:35:27.071Z,4.60
2022-10-13T10:40:45.926Z,4.00
2022-10-13T10:45:50.178Z,5.20
2022-10-13T10:50:54.495Z,4.80
2022-10-13T10:56:05.719Z,3.70
2022-10-13T11:01:12.964Z,4.50
2022-10-13T11:06:16.769Z,5.00
2022-10-13T11:11:26.750Z,3.80
2022-10-13T11:16:41.081Z,4.80
2022-10-13T11:22:00.096Z,5.50
2022-10-13T11:27:12.081Z,5.00
2022-10-13T11:32:36.806Z,4.70
2022-10-13T11:38:07.684Z,4.50
2022-10-13T11:43:20.295Z,3.80
2022-10-13T11:48:51.115Z,5.30
2022-10-13T11:54:24.127Z,5.00
2022-10-13T11:59:35.353Z,4.20
2022-10-13T12:04:46.277Z,4.50
2022-10-13T12:09:54.932Z,4.10
2022-10-13T12:15:02.607Z,4.20
2022-10-13T12:20:31.710Z,4.70
2022-10-13T12:25:37.208Z,3.40
2022-10-13T12:30:45.409Z,5.30
2022-10-13T12:35:48.952Z,3.90
2022-10-13T12:40:55.303Z,4.00
2022-10-13T12:45:58.857Z,4.80
2022-10-13T12:51:23.749Z,5.80
2022-10-13T12:56:32.252Z,5.70
2022-10-13T13:01:36.530Z,4.70
2022-10-13T13:06:55.486Z,4.80
2022-10-13T13:12:11.829Z,4.00
2022-10-13T13:17:52.973Z,3.80
2022-10-13T13:22:51.704Z,4.50
2022-10-13T13:27:55.978Z,5.30
2022-10-13T13:33:00.307Z,4.50
2022-10-13T13:38:05.755Z,5.50
2022-10-13T13:43:10.527Z,4.70
2022-10-13T13:48:15.445Z,5.90
2022-10-13T13:53:20.100Z,5.50
2022-10-13T13:58:24.555Z,4.40
2022-10-13T14:03:29.646Z,5.40
2022-10-13T14:08:36.194Z,4.90
2022-10-13T14:18:45.380Z,5.60
2022-10-13T14:23:49.356Z,4.40
2022-10-13T14:28:54.658Z,4.60
2022-10-13T14:33:59.035Z,5.50
2022-10-13T14:39:02.493Z,5.40
2022-10-13T14:44:07.564Z,6.10
2022-10-13T14:49:12.478Z,7.00
2022-10-13T14:54:17.059Z,7.70
2022-10-13T14:59:21.299Z,6.10
2022-10-13T15:04:25.653Z,6.30
2022-10-13T15:09:44.864Z,6.50
2022-10-13T15:14:54.596Z,6.40
2022-10-13T15:19:59.024Z,9.10
2022-10-13T15:25:04.954Z,7.50
2022-10-13T15:30:10.517Z,8.30
2022-10-13T15:35:14.776Z,8.80
2022-10-13T15:40:19.054Z,7.40
2022-10-13T15:45:25.133Z,7.00
2022-10-13T15:50:31.625Z,7.10
2022-10-13T15:55:36.215Z,6.60
2022-10-13T16:00:41.468Z,6.90
2022-10-13T16:05:53.384Z,7.40
2022-10-13T16:10:57.396Z,8.90
2022-10-13T16:16:01.939Z,8.00
2022-10-13T16:21:18.312Z,6.40
2022-10-13T16:26:22.820Z,8.40
2022-10-13T16:31:27.049Z,8.10
2022-10-13T16:36:31.620Z,7.70
2022-10-13T16:41:35.069Z,7.40
2022-10-13T16:46:38.957Z,8.40
2022-10-13T16:51:43.131Z,9.00
2022-10-13T16:56:47.522Z,11.00
2022-10-13T17:01:53.846Z,13.00
2022-10-13T17:07:00.085Z,14.80
2022-10-13T17:12:04.529Z,11.10
2022-10-13T17:17:08.827Z,11.60
2022-10-13T17:22:13.046Z,11.50
2022-10-13T17:27:17.644Z,9.60
2022-10-13T17:32:22.706Z,10.30
2022-10-13T17:37:27.671Z,11.90
2022-10-13T17:42:32.072Z,12.40
2022-10-13T17:47:36.714Z,14.80
2022-10-13T17:52:41.853Z,15.50
2022-10-13T17:57:46.780Z,13.60
2022-10-13T18:02:51.403Z,14.60
2022-10-13T18:07:58.478Z,14.70
2022-10-13T18:13:02.176Z,15.40
2022-10-13T18:18:06.673Z,15.20
2022-10-13T18:23:10.563Z,18.30
2022-10-13T18:28:14.646Z,17.80
2022-10-13T18:33:19.139Z,16.30
2022-10-13T18:38:24.784Z,17.80
2022-10-13T18:43:31.532Z,18.80
2022-10-13T18:48:36.328Z,21.20
2022-10-13T18:53:43.694Z,21.90
2022-10-13T18:58:48.191Z,26.50
2022-10-13T19:03:54.319Z,22.50
2022-10-13T19:09:10.222Z,23.90
2022-10-13T19:14:15.929Z,26.10
2022-10-13T19:19:21.347Z,25.40
2022-10-13T19:24:27.993Z,22.50
2022-10-13T19:29:34.035Z,24.60
2022-10-13T19:34:40.959Z,26.00
2022-10-13T19:39:53.195Z,26.50
2022-10-13T19:45:06.129Z,25.50
2022-10-13T19:50:12.589Z,27.80
2022-10-13T19:55:18.778Z,24.00
2022-10-13T20:00:23.509Z,28.00
2022-10-13T20:05:27.708Z,25.20
2022-10-13T20:10:35.116Z,27.80
2022-10-13T20:15:41.621Z,22.90
2022-10-13T20:20:46.065Z,24.30
2022-10-13T20:25:50.102Z,24.60
2022-10-13T20:30:54.257Z,26.00
2022-10-13T20:36:13.185Z,26.20
2022-10-13T20:41:20.972Z,24.10
2022-10-13T20:46:26.659Z,19.40
2022-10-13T20:51:30.824Z,28.60
2022-10-13T20:56:34.879Z,25.80
2022-10-13T21:01:41.372Z,23.50
2022-10-13T21:06:46.702Z,20.30
2022-10-13T21:11:51.546Z,24.10
2022-10-13T21:16:55.686Z,27.60
2022-10-13T21:21:59.980Z,28.20
2022-10-13T21:27:04.158Z,23.40
2022-10-13T21:32:08.264Z,26.10
2022-10-13T21:37:12.197Z,25.70
2022-10-13T21:42:16.750Z,21.00
2022-10-13T21:47:22.440Z,22.80
2022-10-13T21:52:28.322Z,22.10
2022-10-13T21:57:32.106Z,23.20
2022-10-13T22:02:36.333Z,20.90
2022-10-13T22:07:40.869Z,22.90
2022-10-13T22:12:45.295Z,25.80
2022-10-13T22:17:49.045Z,22.90
2022-10-13T22:22:53.571Z,23.10
2022-10-13T22:27:57.909Z,27.20
2022-10-13T22:33:02.208Z,25.90
2022-10-13T22:38:05.432Z,25.30
2022-10-13T22:43:09.541Z,25.10
2022-10-13T22:48:13.883Z,22.40
2022-10-13T22:53:18.673Z,24.80
2022-10-13T22:58:23.583Z,25.20
2022-10-13T23:03:27.613Z,24.70
2022-10-13T23:08:31.966Z,25.00
2022-10-13T23:13:36.479Z,23.90
2022-10-13T23:18:41.049Z,24.80
2022-10-13T23:23:45.779Z,23.10
2022-10-13T23:28:50.320Z,24.80
2022-10-13T23:33:54.909Z,27.10
2022-10-13T23:39:05.087Z,22.50
2022-10-13T23:44:10.355Z,23.50
2022-10-13T23:49:15.397Z,24.70
2022-10-13T23:54:20.091Z,22.50
2022-10-13T23:59:24.135Z,26.60
